createdAt,value
2023-03-02T00:03:29.932Z,17.4
2023-03-02T00:09:22.044Z,17.5
2023-03-02T00:15:15.110Z,17.6
2023-03-02T00:21:07.626Z,17.6
2023-03-02T00:27:00.221Z,17.6
2023-03-02T00:32:52.738Z,17.4
2023-03-02T00:38:45.570Z,17.3
2023-03-02T00:44:38.050Z,17.3
2023-03-02T00:50:15.932Z,17.4
2023-03-02T00:56:09.254Z,17.4
2023-03-02T01:02:02.319Z,17.4
2023-03-02T01:07:56.211Z,17.3
2023-03-02T01:13:49.559Z,17.1
2023-03-02T01:19:42.808Z,17.1
2023-03-02T01:25:20.601Z,17.2
2023-03-02T01:30:58.239Z,17.3
2023-03-02T01:36:51.385Z,17.3
2023-03-02T01:42:45.346Z,17.2
2023-03-02T01:48:22.207Z,17.1
2023-03-02T01:53:59.552Z,16.9
2023-03-02T01:59:53.217Z,17.1
2023-03-02T02:05:46.844Z,17.2
2023-03-02T02:11:39.870Z,17.1
2023-03-02T02:17:33.151Z,17.1
2023-03-02T02:29:04.236Z,16.9
2023-03-02T02:34:57.114Z,16.8
2023-03-02T02:40:51.073Z,16.8
2023-03-02T02:52:05.099Z,17.1
2023-03-02T03:03:19.770Z,16.9
2023-03-02T03:08:57.403Z,16.8
2023-03-02T03:14:35.244Z,16.8
2023-03-02T03:20:27.762Z,16.7
2023-03-02T03:26:20.463Z,16.6
2023-03-02T03:32:14.424Z,16.5
2023-03-02T03:38:07.089Z,16.4
2023-03-02T03:44:00.531Z,16.6
2023-03-02T03:49:54.682Z,16.9
2023-03-02T03:55:49.065Z,16.9
2023-03-02T04:01:27.011Z,16.9
2023-03-02T04:07:05.426Z,16.8
2023-03-02T04:12:42.187Z,16.7
2023-03-02T04:18:03.820Z,16.6
2023-03-02T04:23:41.587Z,16.6
2023-03-02T04:29:19.190Z,16.4
2023-03-02T04:35:12.618Z,16.6
2023-03-02T04:41:04.966Z,16.8
2023-03-02T04:47:00.695Z,16.8
2023-03-02T04:52:53.778Z,16.7
2023-03-02T04:58:46.327Z,16.6
2023-03-02T05:04:40.791Z,16.6
2023-03-02T05:10:33.732Z,16.5
2023-03-02T05:16:26.253Z,16.4
2023-03-02T05:22:18.735Z,16.4
2023-03-02T05:28:12.107Z,16.6
2023-03-02T05:34:05.054Z,16.8
2023-03-02T05:39:58.681Z,16.8
2023-03-02T05:45:52.148Z,16.7
2023-03-02T05:51:45.414Z,16.6
2023-03-02T05:57:23.176Z,16.5
2023-03-02T06:03:00.934Z,16.4
2023-03-02T06:08:37.820Z,16.4
2023-03-02T06:14:14.974Z,16.3
2023-03-02T06:19:52.446Z,16.4
2023-03-02T06:25:30.149Z,16.6
2023-03-02T06:31:21.500Z,16.7
2023-03-02T06:37:00.292Z,16.6
2023-03-02T06:42:37.848Z,16.6
2023-03-02T06:48:15.437Z,16.5
2023-03-02T06:53:52.903Z,16.4
2023-03-02T06:59:30.509Z,16.3
2023-03-02T07:05:09.051Z,16.4
2023-03-02T07:10:48.587Z,16.6
2023-03-02T07:16:28.418Z,16.7
2023-03-02T07:22:06.079Z,16.6
2023-03-02T07:27:43.193Z,16.5
2023-03-02T07:33:20.881Z,16.4
2023-03-02T07:39:14.025Z,16.6
2023-03-02T07:45:06.907Z,16.8
2023-03-02T07:51:00.203Z,16.8
2023-03-02T07:56:37.178Z,16.8
2023-03-02T08:02:30.710Z,16.6
2023-03-02T08:08:23.060Z,16.6
2023-03-02T08:14:15.773Z,16.6
2023-03-02T08:20:08.521Z,16.6
2023-03-02T08:26:01.569Z,16.6
2023-03-02T08:31:38.532Z,16.4
2023-03-02T08:37:32.667Z,16.4
2023-03-02T08:43:26.326Z,16.3
2023-03-02T08:49:19.662Z,16.3
2023-03-02T08:55:13.239Z,16.4
2023-03-02T09:01:06.466Z,16.4
2023-03-02T09:06:59.696Z,16.4
2023-03-02T09:12:52.441Z,16.4
2023-03-02T09:18:45.332Z,16.3
2023-03-02T09:24:37.846Z,16.2
2023-03-02T09:30:30.597Z,16.1
2023-03-02T09:36:24.518Z,16.2
2023-03-02T09:42:17.515Z,16.4
2023-03-02T09:48:26.018Z,16.4
2023-03-02T09:54:20.739Z,16.3
2023-03-02T10:00:20.061Z,16.2
2023-03-02T10:06:06.196Z,16.2
2023-03-02T10:11:59.121Z,16.1
2023-03-02T10:17:55.641Z,16.1
2023-03-02T10:23:52.935Z,16.3
2023-03-02T10:29:48.971Z,16.3
2023-03-02T10:35:26.258Z,16.3
2023-03-02T10:41:19.394Z,16.3
2023-03-02T10:47:12.991Z,16.3
2023-03-02T10:53:21.627Z,16.1
2023-03-02T10:59:14.893Z,16.1
2023-03-02T11:05:08.344Z,16.3
2023-03-02T11:11:02.104Z,16.3
2023-03-02T11:16:56.626Z,16.3
2023-03-02T11:22:33.873Z,16.3
2023-03-02T11:28:11.370Z,16.2
2023-03-02T11:34:15.545Z,16.1
2023-03-02T11:40:14.221Z,16.1
2023-03-02T11:45:52.688Z,16.1
2023-03-02T11:52:16.086Z,16.3
2023-03-02T11:58:12.593Z,16.3
2023-03-02T12:03:35.301Z,16.3
2023-03-02T12:09:29.578Z,16.2
2023-03-02T12:15:22.805Z,16.2
2023-03-02T12:21:16.640Z,16.1
2023-03-02T12:27:09.254Z,16.1
2023-03-02T12:33:02.417Z,16.3
2023-03-02T12:38:55.875Z,16.3
2023-03-02T12:44:49.530Z,16.3
2023-03-02T12:50:47.260Z,16.3
2023-03-02T12:56:39.797Z,16.1
2023-03-02T13:02:33.918Z,16.1
2023-03-02T13:08:26.841Z,16.1
2023-03-02T13:14:23.973Z,16.3
2023-03-02T13:20:16.993Z,16.3
2023-03-02T13:26:09.558Z,16.3
2023-03-02T13:32:03.926Z,16.2
2023-03-02T13:37:57.361Z,16.1
2023-03-02T13:43:49.922Z,16.1
2023-03-02T13:49:59.116Z,16.1
2023-03-02T13:55:52.231Z,16.2
2023-03-02T14:01:45.756Z,16.3
2023-03-02T14:07:39.551Z,16.3
2023-03-02T14:13:17.988Z,16.3
2023-03-02T14:19:10.422Z,16.2
2023-03-02T14:25:04.124Z,16.1
2023-03-02T14:31:02.916Z,16
2023-03-02T14:36:56.091Z,16.1
2023-03-02T14:43:00.061Z,16.2
2023-03-02T14:48:52.780Z,16.3
2023-03-02T14:54:45.409Z,16.3
2023-03-02T15:00:40.037Z,16.3
2023-03-02T15:07:07.135Z,16.2
2023-03-02T15:12:44.002Z,16.2
2023-03-02T15:18:36.610Z,16.1
2023-03-02T15:24:32.032Z,16
2023-03-02T15:30:26.455Z,16.1
2023-03-02T15:36:19.206Z,16.3
2023-03-02T15:42:13.764Z,16.4
2023-03-02T15:48:07.039Z,16.3
2023-03-02T15:54:00.124Z,16.3
2023-03-02T15:59:47.092Z,16.2
2023-03-02T16:05:42.594Z,16.1
2023-03-02T16:11:36.247Z,16
2023-03-02T16:17:29.438Z,16.1
2023-03-02T16:23:22.400Z,16.3
2023-03-02T16:29:16.277Z,16.3
2023-03-02T16:35:09.426Z,16.3
2023-03-02T16:41:03.024Z,16.2
2023-03-02T16:46:41.084Z,16.1
2023-03-02T16:52:35.144Z,16
2023-03-02T16:58:28.307Z,15.9
2023-03-02T17:04:22.742Z,16.1
2023-03-02T17:10:20.513Z,16.3
2023-03-02T17:16:13.330Z,16.3
2023-03-02T17:22:06.204Z,16.3
2023-03-02T17:28:14.360Z,16.2
2023-03-02T17:34:07.789Z,16.1
2023-03-02T17:39:59.796Z,16
2023-03-02T17:45:56.482Z,16.1
2023-03-02T17:51:49.740Z,16.3
2023-03-02T17:57:42.573Z,16.3
2023-03-02T18:03:43.740Z,16.3
2023-03-02T18:09:39.958Z,16.1
2023-03-02T18:15:32.822Z,16.1
2023-03-02T18:21:10.983Z,15.9
2023-03-02T18:27:04.734Z,15.9
2023-03-02T18:32:58.407Z,16
2023-03-02T18:38:36.016Z,16.2
2023-03-02T18:44:28.611Z,16.3
2023-03-02T18:50:21.364Z,16.2
2023-03-02T18:56:14.949Z,16.1
2023-03-02T19:02:08.808Z,16
2023-03-02T19:08:00.259Z,15.9
2023-03-02T19:13:40.922Z,15.9
2023-03-02T19:19:36.097Z,15.8
2023-03-02T19:25:28.837Z,15.9
2023-03-02T19:31:22.062Z,16.1
2023-03-02T19:37:00.133Z,16.1
2023-03-02T19:42:52.815Z,16.1
2023-03-02T19:48:48.020Z,16
2023-03-02T19:54:41.211Z,15.9
2023-03-02T20:00:34.020Z,15.9
2023-03-02T20:06:14.473Z,15.8
2023-03-02T20:12:07.905Z,15.8
2023-03-02T20:18:09.958Z,15.8
2023-03-02T20:24:04.893Z,16
2023-03-02T20:29:57.577Z,16.1
2023-03-02T20:35:50.645Z,15.9
2023-03-02T20:41:48.166Z,15.9
2023-03-02T20:47:41.888Z,15.9
2023-03-02T20:53:35.081Z,15.8
2023-03-02T20:59:13.321Z,15.8
2023-03-02T21:05:06.116Z,15.7
2023-03-02T21:11:01.658Z,15.8
2023-03-02T21:16:57.502Z,16
2023-03-02T21:22:47.865Z,16
2023-03-02T21:28:43.993Z,15.9
2023-03-02T21:34:38.426Z,15.9
2023-03-02T21:40:32.652Z,15.8
2023-03-02T21:46:26.326Z,15.8
2023-03-02T21:52:06.116Z,15.8
2023-03-02T21:57:59.687Z,15.8
2023-03-02T22:03:53.162Z,16.1
2023-03-02T22:09:45.692Z,16.1
2023-03-02T22:15:39.386Z,16.1
2023-03-02T22:21:33.363Z,16.2
2023-03-02T22:27:27.056Z,16.3
2023-03-02T22:33:19.267Z,16.3
2023-03-02T22:39:12.560Z,16.3
2023-03-02T22:45:06.028Z,16.1
2023-03-02T22:50:59.936Z,16
2023-03-02T22:56:53.945Z,15.9
2023-03-02T23:02:47.462Z,16
2023-03-02T23:08:40.653Z,16.2
2023-03-02T23:14:34.587Z,16.3
2023-03-02T23:20:28.540Z,16.3
2023-03-02T23:26:20.759Z,16.1
2023-03-02T23:32:13.446Z,16
2023-03-02T23:38:06.356Z,15.9
2023-03-02T23:43:58.952Z,15.9
2023-03-02T23:49:51.003Z,16.1
2023-03-02T23:55:44.891Z,16.2
